createdAt,value
2022-10-05T00:01:55.579Z,88.10
2022-10-05T00:04:24.669Z,88.20
2022-10-05T00:06:58.201Z,88.20
2022-10-05T00:09:25.168Z,88.20
2022-10-05T00:12:11.710Z,88.20
2022-10-05T00:14:39.427Z,88.20
2022-10-05T00:17:07.227Z,88.30
2022-10-05T00:25:28.212Z,87.90
2022-10-05T00:53:30.051Z,86.70
2022-10-05T00:56:34.284Z,86.50
2022-10-05T00:59:31.985Z,86.50
2022-10-05T01:02:26.089Z,86.30
2022-10-05T01:05:12.464Z,86.00
2022-10-05T01:16:24.921Z,85.50
2022-10-05T01:27:12.599Z,84.90
2022-10-05T01:30:03.440Z,85.00
2022-10-05T01:32:51.070Z,85.50
2022-10-05T01:35:24.209Z,86.00
2022-10-05T01:37:58.068Z,86.40
2022-10-05T01:43:30.730Z,87.50
2022-10-05T01:46:43.284Z,87.90
2022-10-05T01:52:54.800Z,88.50
2022-10-05T01:58:28.037Z,89.20
2022-10-05T02:01:09.755Z,89.40
2022-10-05T02:07:14.399Z,89.60
2022-10-05T02:10:08.025Z,89.70
2022-10-05T02:12:38.166Z,89.90
2022-10-05T02:15:13.745Z,89.80
2022-10-05T02:18:02.286Z,90.00
2022-10-05T02:20:40.863Z,90.10
2022-10-05T02:23:22.264Z,90.20
2022-10-05T02:26:00.981Z,90.20
2022-10-05T02:28:58.632Z,90.40
2022-10-05T02:34:51.437Z,90.80
2022-10-05T02:57:03.745Z,91.70
2022-10-05T02:59:40.288Z,91.90
2022-10-05T03:02:16.963Z,91.90
2022-10-05T03:05:12.846Z,91.80
2022-10-05T03:07:43.494Z,92.00
2022-10-05T03:10:34.098Z,92.10
2022-10-05T03:19:28.897Z,92.20
2022-10-05T03:22:28.916Z,92.10
2022-10-05T03:25:30.571Z,92.10
2022-10-05T03:28:08.919Z,92.00
2022-10-05T03:31:04.371Z,91.70
2022-10-05T03:37:26.755Z,91.20
2022-10-05T03:43:51.235Z,90.90
2022-10-05T03:46:52.944Z,90.30
2022-10-05T03:49:47.209Z,90.00
2022-10-05T03:52:26.323Z,90.00
2022-10-05T03:55:52.987Z,89.90
2022-10-05T03:58:32.799Z,90.00
2022-10-05T04:01:05.803Z,90.00
2022-10-05T04:03:43.881Z,90.20
2022-10-05T04:06:37.820Z,90.30
2022-10-05T04:12:43.911Z,90.20
2022-10-05T04:17:54.563Z,89.60
2022-10-05T04:20:47.563Z,89.30
2022-10-05T04:23:56.529Z,88.80
2022-10-05T04:26:52.416Z,88.20
2022-10-05T04:29:48.866Z,87.60
2022-10-05T04:32:39.488Z,86.80
2022-10-05T04:35:24.322Z,85.80
2022-10-05T04:38:11.607Z,85.30
2022-10-05T04:41:14.682Z,85.20
2022-10-05T04:44:08.673Z,84.90
2022-10-05T04:46:50.269Z,84.80
2022-10-05T04:49:23.911Z,84.40
2022-10-05T04:52:18.539Z,84.20
2022-10-05T04:54:54.036Z,84.30
2022-10-05T04:57:44.360Z,83.80
2022-10-05T05:00:21.147Z,83.70
2022-10-05T05:03:06.250Z,83.40
2022-10-05T05:06:16.940Z,83.30
2022-10-05T05:09:21.592Z,83.10
2022-10-05T05:12:07.444Z,83.20
2022-10-05T05:14:59.941Z,83.20
2022-10-05T05:17:32.612Z,83.30
2022-10-05T05:20:23.591Z,83.30
2022-10-05T05:23:01.842Z,83.20
2022-10-05T05:25:35.753Z,83.10
2022-10-05T05:28:29.642Z,82.70
2022-10-05T05:31:16.512Z,82.60
2022-10-05T05:34:00.523Z,82.20
2022-10-05T05:36:35.140Z,82.10
2022-10-05T05:39:21.329Z,82.20
2022-10-05T05:42:16.224Z,82.10
2022-10-05T05:44:48.065Z,82.10
2022-10-05T05:47:19.908Z,82.00
2022-10-05T05:50:08.786Z,82.00
2022-10-05T05:52:41.111Z,82.30
2022-10-05T05:55:20.775Z,82.40
2022-10-05T05:57:54.332Z,82.50
2022-10-05T06:00:36.426Z,82.80
2022-10-05T06:03:43.059Z,82.90
2022-10-05T06:06:13.300Z,83.00
2022-10-05T06:08:43.093Z,83.00
2022-10-05T06:11:50.487Z,82.90
2022-10-05T06:14:31.645Z,83.00
2022-10-05T06:17:05.002Z,82.90
2022-10-05T06:19:34.188Z,83.10
2022-10-05T06:22:18.573Z,83.30
2022-10-05T06:25:06.660Z,83.40
2022-10-05T06:28:11.522Z,83.60
2022-10-05T06:31:20.391Z,83.70
2022-10-05T06:33:51.370Z,83.80
2022-10-05T06:36:41.475Z,83.90
2022-10-05T06:39:24.270Z,83.80
2022-10-05T06:42:18.750Z,83.80
2022-10-05T06:45:15.060Z,83.90
2022-10-05T06:48:25.154Z,83.90
2022-10-05T06:51:04.188Z,83.80
2022-10-05T06:54:04.569Z,83.80
2022-10-05T06:56:45.160Z,83.90
2022-10-05T06:59:40.753Z,83.90
2022-10-05T07:02:41.475Z,84.00
2022-10-05T07:05:39.291Z,84.10
2022-10-05T07:08:27.049Z,84.20
2022-10-05T07:11:02.213Z,84.50
2022-10-05T07:13:57.099Z,84.40
2022-10-05T07:16:58.399Z,84.40
2022-10-05T07:19:39.722Z,84.50
2022-10-05T07:22:34.212Z,84.60
2022-10-05T07:25:15.584Z,84.50
2022-10-05T07:28:00.319Z,84.70
2022-10-05T07:30:26.990Z,84.80
2022-10-05T07:32:59.098Z,85.00
2022-10-05T07:35:44.507Z,85.30
2022-10-05T07:38:47.381Z,85.10
2022-10-05T07:41:21.388Z,85.00
2022-10-05T07:44:24.981Z,85.10
2022-10-05T07:47:05.205Z,85.40
2022-10-05T07:49:46.132Z,85.60
2022-10-05T07:52:25.134Z,85.40
2022-10-05T07:55:06.274Z,85.40
2022-10-05T07:57:53.056Z,85.20
2022-10-05T08:00:22.546Z,85.10
2022-10-05T08:03:01.715Z,85.30
2022-10-05T08:05:31.327Z,85.50
2022-10-05T08:08:20.425Z,85.60
2022-10-05T08:11:04.924Z,85.60
2022-10-05T08:13:39.126Z,85.40
2022-10-05T08:16:10.639Z,85.40
2022-10-05T08:18:51.749Z,85.00
2022-10-05T08:21:25.508Z,85.00
2022-10-05T08:24:15.916Z,84.90
2022-10-05T08:27:10.849Z,84.80
2022-10-05T08:30:01.743Z,84.70
2022-10-05T08:33:02.289Z,84.60
2022-10-05T08:35:40.502Z,84.40
2022-10-05T08:38:28.896Z,84.60
2022-10-05T08:41:09.382Z,84.60
2022-10-05T08:51:29.645Z,83.60
2022-10-05T08:58:16.873Z,82.90
2022-10-05T09:37:01.779Z,79.10
2022-10-05T09:40:01.556Z,79.00
2022-10-05T09:42:47.812Z,78.40
2022-10-05T09:45:38.742Z,78.80
2022-10-05T09:52:08.469Z,78.60
2022-10-05T09:54:47.050Z,78.30
2022-10-05T09:57:49.378Z,78.30
2022-10-05T10:00:19.028Z,78.20
2022-10-05T10:03:12.199Z,78.60
2022-10-05T10:06:16.589Z,78.60
2022-10-05T10:08:49.310Z,79.20
2022-10-05T10:11:46.865Z,78.60
2022-10-05T10:14:19.952Z,78.70
2022-10-05T10:17:22.467Z,78.70
2022-10-05T10:20:13.338Z,78.70
2022-10-05T10:22:52.108Z,78.90
2022-10-05T10:25:32.819Z,78.50
2022-10-05T10:28:14.008Z,78.70
2022-10-05T10:31:05.533Z,78.70
2022-10-05T10:33:58.879Z,78.50
2022-10-05T10:36:56.382Z,78.90
2022-10-05T10:39:50.639Z,79.40
2022-10-05T10:42:45.467Z,79.50
2022-10-05T10:45:56.972Z,79.10
2022-10-05T10:48:29.419Z,79.00
2022-10-05T10:51:31.078Z,79.40
2022-10-05T10:58:05.890Z,79.80
2022-10-05T11:00:41.831Z,79.60
2022-10-05T11:03:31.276Z,79.60
2022-10-05T11:06:17.744Z,80.00
2022-10-05T11:09:09.138Z,80.00
2022-10-05T11:12:04.007Z,80.00
2022-10-05T11:14:35.509Z,80.10
2022-10-05T11:17:31.802Z,79.70
2022-10-05T11:20:21.221Z,79.80
2022-10-05T11:23:06.113Z,78.90
2022-10-05T11:25:47.816Z,78.90
2022-10-05T11:38:07.872Z,78.20
2022-10-05T11:41:19.770Z,78.30
2022-10-05T11:44:17.586Z,78.30
2022-10-05T11:47:25.184Z,78.00
2022-10-05T11:50:17.638Z,78.20
2022-10-05T11:56:18.907Z,78.00
2022-10-05T11:59:26.359Z,78.60
2022-10-05T12:08:57.812Z,77.50
2022-10-05T12:11:32.834Z,77.60
2022-10-05T12:14:27.153Z,77.40
2022-10-05T12:17:13.976Z,77.40
2022-10-05T12:20:12.117Z,77.20
2022-10-05T12:22:45.597Z,76.70
2022-10-05T12:25:25.318Z,77.10
2022-10-05T12:28:00.392Z,76.30
2022-10-05T12:30:51.582Z,76.20
2022-10-05T12:33:37.669Z,76.40
2022-10-05T12:36:17.117Z,76.60
2022-10-05T12:39:08.029Z,76.60
2022-10-05T12:41:57.518Z,77.00
2022-10-05T12:44:50.036Z,76.40
2022-10-05T12:47:27.733Z,76.50
2022-10-05T12:50:19.180Z,76.40
2022-10-05T12:53:00.141Z,75.90
2022-10-05T12:55:49.961Z,76.60
2022-10-05T12:58:25.363Z,76.90
2022-10-05T13:01:08.574Z,77.00
2022-10-05T13:03:43.886Z,77.00
2022-10-05T13:06:30.751Z,76.50
2022-10-05T13:09:11.451Z,76.60
2022-10-05T13:11:45.958Z,76.60
2022-10-05T13:14:37.045Z,76.80
2022-10-05T13:17:13.595Z,77.40
2022-10-05T13:19:47.499Z,77.40
2022-10-05T13:22:27.272Z,77.40
2022-10-05T13:25:13.871Z,77.60
2022-10-05T13:28:09.004Z,77.10
2022-10-05T13:30:39.154Z,77.40
2022-10-05T13:33:14.653Z,77.40
2022-10-05T13:38:56.571Z,77.00
2022-10-05T13:41:23.172Z,77.90
2022-10-05T13:44:14.381Z,77.70
2022-10-05T13:46:50.055Z,78.10
2022-10-05T13:49:41.519Z,77.70
2022-10-05T13:52:08.185Z,77.80
2022-10-05T13:54:56.205Z,76.60
2022-10-05T14:01:01.750Z,76.20
2022-10-05T14:03:38.711Z,75.50
2022-10-05T14:06:41.557Z,75.40
2022-10-05T14:09:28.796Z,74.60
2022-10-05T14:12:04.311Z,75.10
2022-10-05T14:14:50.544Z,75.30
2022-10-05T14:17:40.780Z,75.20
2022-10-05T14:20:22.872Z,75.10
2022-10-05T14:23:22.378Z,75.80
2022-10-05T14:26:19.444Z,76.00
2022-10-05T14:29:01.536Z,75.70
2022-10-05T14:31:35.253Z,75.40
2022-10-05T14:35:09.011Z,75.30
2022-10-05T14:38:16.332Z,75.30
2022-10-05T14:40:47.315Z,74.90
2022-10-05T14:43:18.865Z,74.60
2022-10-05T14:46:20.666Z,74.80
2022-10-05T14:48:50.070Z,75.30
2022-10-05T14:51:31.985Z,75.50
2022-10-05T14:54:21.941Z,75.50
2022-10-05T15:00:26.908Z,74.70
2022-10-05T15:06:03.825Z,74.90
2022-10-05T15:12:19.055Z,75.20
2022-10-05T15:18:10.468Z,74.00
2022-10-05T15:24:23.738Z,74.00
2022-10-05T15:27:03.404Z,73.50
2022-10-05T15:30:07.485Z,73.40
2022-10-05T15:49:44.669Z,73.30
2022-10-05T16:11:26.565Z,74.60
2022-10-05T16:14:33.225Z,74.60
2022-10-05T16:17:21.596Z,74.90
2022-10-05T16:20:08.548Z,75.10
2022-10-05T16:22:44.159Z,75.30
2022-10-05T16:25:16.442Z,75.50
2022-10-05T16:28:21.831Z,75.30
2022-10-05T16:30:59.339Z,75.50
2022-10-05T16:33:46.624Z,75.70
2022-10-05T16:36:40.920Z,75.90
2022-10-05T16:39:18.805Z,75.90
2022-10-05T16:42:08.368Z,76.10
2022-10-05T16:45:07.809Z,76.40
2022-10-05T16:48:07.909Z,76.60
2022-10-05T16:50:42.395Z,76.80
2022-10-05T16:53:16.534Z,77.00
2022-10-05T16:55:51.803Z,77.20
2022-10-05T16:58:26.555Z,77.30
2022-10-05T17:01:13.401Z,77.50
2022-10-05T17:03:57.950Z,77.70
2022-10-05T17:06:39.548Z,77.80
2022-10-05T17:09:30.837Z,78.10
2022-10-05T17:12:03.399Z,78.20
2022-10-05T17:14:54.678Z,78.60
2022-10-05T17:17:39.881Z,78.70
2022-10-05T17:20:37.865Z,78.90
2022-10-05T17:23:38.461Z,78.90
2022-10-05T17:26:23.196Z,79.10
2022-10-05T17:29:18.942Z,79.20
2022-10-05T17:32:29.953Z,79.20
2022-10-05T17:34:59.370Z,79.30
2022-10-05T17:37:43.898Z,79.50
2022-10-05T17:40:29.188Z,79.60
2022-10-05T17:43:28.876Z,79.70
2022-10-05T17:46:00.294Z,79.50
2022-10-05T17:48:50.030Z,79.80
2022-10-05T17:51:29.077Z,79.80
2022-10-05T17:53:55.848Z,80.00
2022-10-05T17:56:23.597Z,80.00
2022-10-05T17:58:50.348Z,80.00
2022-10-05T18:01:28.318Z,80.10
2022-10-05T18:04:15.149Z,80.20
2022-10-05T18:06:55.863Z,80.30
2022-10-05T18:09:22.530Z,80.40
2022-10-05T18:12:16.590Z,80.40
2022-10-05T18:14:54.282Z,80.40
2022-10-05T18:17:47.312Z,80.40
2022-10-05T18:20:26.588Z,80.60
2022-10-05T18:23:08.104Z,80.60
2022-10-05T18:25:52.059Z,80.50
2022-10-05T18:28:37.373Z,80.70
2022-10-05T18:31:35.410Z,80.70
2022-10-05T18:34:26.800Z,80.70
2022-10-05T18:37:05.565Z,80.80
2022-10-05T18:39:41.985Z,80.80
2022-10-05T18:42:34.766Z,80.90
2022-10-05T18:45:18.701Z,80.90
2022-10-05T18:48:24.730Z,81.20
2022-10-05T18:50:53.368Z,81.30
2022-10-05T18:53:32.968Z,81.60
2022-10-05T18:56:02.377Z,81.80
2022-10-05T18:58:56.733Z,82.70
2022-10-05T19:01:29.694Z,84.40
2022-10-05T19:04:30.255Z,86.00
2022-10-05T19:07:15.707Z,87.40
2022-10-05T19:10:08.365Z,88.40
2022-10-05T19:12:55.455Z,89.60
2022-10-05T19:15:50.199Z,90.20
2022-10-05T19:18:41.061Z,90.50
2022-10-05T19:21:26.377Z,91.00
2022-10-05T19:24:25.062Z,91.60
2022-10-05T19:27:11.389Z,93.00
2022-10-05T19:29:41.052Z,94.30
2022-10-05T19:32:30.384Z,95.50
2022-10-05T19:35:38.042Z,95.90
2022-10-05T19:38:26.415Z,94.60
2022-10-05T19:41:05.809Z,93.70
2022-10-05T20:44:08.606Z,98.10
2022-10-05T20:46:35.834Z,98.30
2022-10-05T20:49:04.640Z,97.00
2022-10-05T20:51:31.330Z,95.80
2022-10-05T20:54:00.394Z,94.90
2022-10-05T20:56:35.448Z,95.20
2022-10-05T21:21:28.517Z,95.50
2022-10-05T21:27:29.517Z,95.20
2022-10-05T21:30:32.992Z,94.90
2022-10-05T21:33:32.195Z,94.80
2022-10-05T21:35:58.853Z,94.60
2022-10-05T21:38:26.050Z,94.30
2022-10-05T21:40:56.289Z,94.30
2022-10-05T21:43:26.244Z,94.20
2022-10-05T21:46:11.320Z,94.30
2022-10-05T21:48:39.664Z,94.20
2022-10-05T21:51:38.888Z,94.30
2022-10-05T21:57:12.219Z,94.50
2022-10-05T21:59:39.905Z,94.90
2022-10-05T22:02:06.547Z,95.00
2022-10-05T22:04:36.202Z,95.50
2022-10-05T22:07:19.261Z,96.00
2022-10-05T22:09:49.593Z,96.50
2022-10-05T22:12:17.169Z,96.70
2022-10-05T22:14:43.823Z,96.90
2022-10-05T22:17:16.543Z,97.10
2022-10-05T22:19:43.252Z,97.40
2022-10-05T22:22:18.810Z,97.30
2022-10-05T22:24:52.177Z,97.20
2022-10-05T22:27:19.993Z,97.20
2022-10-05T22:29:46.956Z,97.00
2022-10-05T22:32:19.695Z,96.90
2022-10-05T22:34:49.139Z,96.80
2022-10-05T22:37:21.241Z,96.60
2022-10-05T22:39:50.176Z,96.40
2022-10-05T22:42:26.916Z,96.20
2022-10-05T22:44:58.224Z,96.20
2022-10-05T22:47:24.916Z,96.10
2022-10-05T22:49:57.188Z,95.60
2022-10-05T22:52:29.665Z,95.40
2022-10-05T22:55:01.761Z,95.00
2022-10-05T22:57:39.027Z,94.50
2022-10-05T23:00:15.298Z,93.20
2022-10-05T23:19:07.794Z,90.30
2022-10-05T23:28:38.505Z,89.80
2022-10-05T23:31:08.486Z,89.00
2022-10-05T23:33:37.727Z,88.80
2022-10-05T23:39:19.756Z,88.40
2022-10-05T23:41:46.443Z,88.20
2022-10-05T23:44:15.536Z,88.10
2022-10-05T23:46:42.550Z,88.10
2022-10-05T23:49:15.083Z,88.10
2022-10-05T23:51:54.013Z,88.00
2022-10-05T23:54:54.200Z,88.00
2022-10-05T23:57:20.942Z,87.90
2022-10-05T23:59:55.864Z,87.90
